< < Back
Terminal Aerodrome Forecast


Current Version              Previous Versions:   1  2  3  4  5  6  7  8  9  

Terminal Aerodrome Forecast

860
FTUS42 KJAX 301910 AAA
TAFSSI
TAF AMD
KSSI 301910Z 3019/0118 16008KT P6SM VCTS BKN040CB BKN250
      TEMPO 3019/3023 VRB15G25KT 2SM TSRA BKN025CB OVC040
     FM010200 VRB03KT P6SM VCSH BKN050 OVC120
     FM010500 20003KT P6SM SCT120 BKN250
     FM011400 25008KT P6SM SCT030=



Latest METAR

481
SAUS70 KWBC 010400 RRX
MTRSSI
METAR KSSI 010353Z AUTO 18006KT 10SM CLR 28/23 A3002 RMK AO2 SLP165
T02780233


USA.gov is the U.S. government's official web portal to all federal, state and local government web resources and services.